Ride Results

Wingello Forest Ride (21-05-2016)
Ride distance: 80.0 km

Outcomes - Wingello Forest Ride (21-05-2016)
Division No. of Entries Retired / DNE Completed Withdrawn Ineligible V/O Percentage Completed
HW 19 - 17 - - 2 89.47%
MW 48 - 39 2 - 7 81.25%
LW 28 - 20 2 - 6 71.43%
JN 6 - 6 - - - 100.00%
Totals 101 - 82 4 - 15 81.19%
Results - Wingello Forest Ride (21-05-2016)
No. Rider Horse Place Time Leg Speeds Total
Km/Hr
H/R bpm
Heavyweight
502 John Robertson Karabil Asis 1 4:09:00 19.6, 18.8 19.28 36, 48, 55 (Avg:51)
506 Nigel Colefax Evening Star 2 (BC) 4:35:00 17.9, 16.9 17.45 40, 42, 48 (Avg:45)
512 Roy Barsby Dumaresq Buzz 3 4:58:00 15.1, 17.2 16.11 32, 44, 50 (Avg:47)
501 Steve Broadbent Glendhu Moonshine 4 5:20:00 17.6, 12.9 15.00 34, 48, 49 (Avg:48)
510 Len Derkacz Salam Zahbeel 5 5:48:00 14.9, 12.7 13.79 38, 41, 55 (Avg:48)
519 Scott Peters Stoodleigh Colonial Boy 5 5:48:00 14.2, 13.3 13.79 29, 39, 58 (Avg:48)
515 Con Bouzianis Conderosa Zaheera 7 6:35:00 12.7, 11.5 12.15 38, 40, 44 (Avg:42)
513 Frank Flissinger Ranjen Hayley 8 6:37:00 12.7, 11.4 12.09 29, 48, 57 (Avg:52)
505 Steve Brooks A'landell Pirate 9 6:44:00 12.9, 10.9 11.88 33, 41, 46 (Avg:43)
504 Heidi Wade Yinbilliko Jackson 10 6:50:00 12.2, 11.1 11.71 36, 48, 50 (Avg:49)
511 Dean Hodkinson Lydia Te 11 6:53:00 15.2, 9.2 11.62 28, 47, 50 (Avg:48)
508 Kathryn Priol Royal Windsor Jacob 12 7:04:00 11.0, 11.5 11.32 35, 46, 50 (Avg:48)
517 Allan Caslick A'Landell Soul 13 7:08:00 11.1, 11.2 11.21 29, 38, 46 (Avg:42)
514 Ian Dreghorn Ausden Nile Prins 14 7:17:00 12.2, 9.8 10.98 37, 45, 58 (Avg:51)
518 Rod Mitchell Aloha Tribal Warrior 14 7:17:00 11.6, 10.3 10.98 32, 42, 48 (Avg:45)
503 Rhys Norman Owata Park Amirah 16 7:52:00 10.1, 10.1 10.17 33, 48, 50 (Avg:49)
516 Sue Warren Razorback Flash 17 8:10:00 10.6, 9.0 9.80 30, 47, 59 (Avg:53)
500 Peter Norman Renbury Brian Lame L2 0:00:00 16.1, 12.7 - 37, 40, 56 (Avg:48)
507 Marita Rifai Tianna Lame L2 0:00:00 10.8, 11.0 - 39, 44, 55 (Avg:49)
Middleweight
428 Talea Hasko-Stewart Blake's Heaven Bombora 1 4:06:00 19.6, 19.3 19.51 30, 36, 52 (Avg:44)
419 Anita Ashby Lentara Park Heather 2 4:21:00 19.6, 17.2 18.39 35, 49, 52 (Avg:50)
441 Clare Feary Die Kinder Junrei 3 4:24:00 17.6, 18.7 18.18 34, 44, 51 (Avg:47)
442 Darien Feary Copperkahn Tiara 3 (BC) 4:24:00 17.6, 18.7 18.18 27, 40, 42 (Avg:41)
427 Nicole Smith Malvern Harmony 5 4:56:00 17.2, 15.2 16.22 34, 42, 44 (Avg:43)
445 Mitchell Ravallion Avita 6 5:41:00 15.2, 12.9 14.08 46, 46, 50 (Avg:48)
447 Kristie Taprell Castlebar Belair 6 5:41:00 14.0, 14.0 14.08 44, 42, 56 (Avg:49)
417 Brad Dillon Raymar Henry 8 5:46:00 14.0, 13.6 13.87 33, 48, 51 (Avg:49)
412 Peter Bice Georgie Girl 9 5:54:00 14.6, 12.5 13.56 31, 46, 44 (Avg:45)
401 Kim Stephens Silver Ridge Navarro 10 6:03:00 13.8, 12.6 13.22 31, 44, 48 (Avg:46)
402 Ellen Vine Castlebar What's The Goss 10 6:03:00 13.8, 12.6 13.22 35, 44, 49 (Avg:46)
406 Jennifer Caslick Arabec The Wizard 12 6:07:00 13.3, 12.7 13.08 37, 51, 45 (Avg:48)
437 Jessica Drain-Shepheard Thee Prophecy 13 6:12:00 12.9, 12.8 12.90 37, 42, 44 (Avg:43)
420 Johanne Gardiner Coolinda Park Xzinda-Ella 14 6:17:00 12.9, 12.5 12.73 30, 39, 42 (Avg:40)
438 Gertraud Norton Scarlet Oaks Amica 14 6:17:00 13.1, 12.3 12.73 39, 45, 58 (Avg:51)
448 Roy Counsell Castlebar Cougar 16 6:18:00 12.5, 12.8 12.70 27, 41, 59 (Avg:50)
446 Linda Tanian Castlebar Cossack 16 6:18:00 12.5, 12.8 12.70 36, 52, 52 (Avg:52)
416 Claudia Reid Ningadoo Tornado 18 6:20:00 13.4, 11.8 12.63 34, 39, 48 (Avg:43)
405 Carol Major Bradali Najmul Fi Samar 19 6:27:00 13.5, 11.4 12.40 32, 36, 44 (Avg:40)
418 Sharyn Coulston Castlebar Tolkien 20 6:32:00 12.1, 12.3 12.24 39, 44, 59 (Avg:51)
411 Charlene Malone Jon De Le Jasper 20 6:32:00 12.1, 12.3 12.24 33, 53, 52 (Avg:52)
429 Lauren Stevenson Wantley Kaliph 22 6:33:00 11.9, 12.4 12.21 28, 38, 44 (Avg:41)
422 Mia Bodewes Safour 23 6:35:00 12.7, 11.5 12.15 45, 35, 37 (Avg:36)
426 Sarah Lymbery Toprail Mahogany 24 6:39:00 11.3, 12.8 12.03 43, 43, 55 (Avg:49)
404 Michelle George Yinbilliko Sameera Rukan 25 6:50:00 12.2, 11.1 11.71 27, 35, 39 (Avg:37)
443 Fiona Meller Malu Vale Embers 26 7:02:00 12.4, 10.3 11.37 30, 39, 46 (Avg:42)
435 Sandra Stiller Wybalena Lodge Aflirt 26 7:02:00 11.0, 11.7 11.37 35, 38, 48 (Avg:43)
324 Catherine Bailey Corryong Cold Snap 28 7:04:00 11.1, 11.4 11.32 35, 42, 58 (Avg:50)
444 Emily Streckfuss Zarafa 29 7:15:00 11.1, 10.8 11.03 32, 40, 44 (Avg:42)
413 Garry Weis Suncrest Salaam 30 7:17:00 10.8, 11.0 10.98 54, 52, 51 (Avg:51)
433 Harrison Berg Oso Irazu 31 7:25:00 12.4, 9.4 10.79 37, 44, 53 (Avg:48)
440 Ben Hudson Apex Hustler 32 7:26:00 10.4, 11.1 10.76 36, 44, 57 (Avg:50)
432 Tayla Hadzi Oso Nicholas 33 7:40:00 10.4, 10.4 10.43 35, 55, 48 (Avg:51)
434 Katherine Heather Aloha Mamma Mia 33 7:40:00 10.3, 10.5 10.43 32, 42, 44 (Avg:43)
400 Leanne Hickson Kharbo 33 7:40:00 10.6, 10.2 10.43 47, 42, 52 (Avg:47)
410 Jennifer Rogers Windradyne Ballerina 33 7:40:00 10.6, 10.2 10.43 25, 34, 47 (Avg:40)
414 Laurie Taylor Forest Dale Xasperation 33 7:40:00 9.9, 10.9 10.43 33, 49, 54 (Avg:51)
423 Tayla Warren Entourage Era 33 7:40:00 10.6, 10.2 10.43 28, 34, 45 (Avg:39)
403 Jesse Buchan Mountain Ash Tabasco 39 7:52:00 10.6, 9.6 10.17 38, 42, 52 (Avg:47)
436 Kayte Barnard FC Bejing Lame L2 0:00:00 10.7, 10.7 - 35, 43, 44 (Avg:43)
421 Tom Bouzianis Conderosa Bucephalus Lame L2 0:00:00 12.7, 11.5 - 31, 41, 51 (Avg:46)
407 Madeline Cotton Ithilien Elendelle Lame L2 0:00:00 11.1, 11.2 - 28, 39, 42 (Avg:40)
439 Mark Norton Zemzem Raya Lame L2 0:00:00 13.1, 12.3 - 35, 44, 58 (Avg:51)
430 Noni Seagrim Turingal Park Vassili Lame L2 0:00:00 19.6, 16.3 - 42, 43, 58 (Avg:50)
424 Ian Curtis Blake's Heaven Summer Wind Withdrawn L1 0:00:00 - - 38, 44 (Avg:44)
425 Anne Lymbery Omani Ishana Lame L1 0:00:00 11.3 - 39, 42 (Avg:42)
431 Erin Steinbacher Eminem Vyper Lame L1 0:00:00 10.2 - 30, 40 (Avg:40)
415 John Symons Forest Dale Xcalibur Withdrawn L1 0:00:00 - - 38, 38 (Avg:38)
Lightweight
303 April Newman Taeaura Shayarnah 1 (BC) 4:07:00 19.5, 19.3 19.43 35, 48, 48 (Avg:48)
306 Louise Piddington Trazir Amir Rhazzikh 2 4:20:00 18.4, 18.4 18.46 32, 44, 46 (Avg:45)
307 Emma Broome Raymar Aden 3 5:46:00 14.0, 13.6 13.87 28, 44, 55 (Avg:49)
319 Bec Radny Al Marah Heyho Silver 4 5:52:00 12.9, 14.4 13.64 30, 48, 54 (Avg:51)
318 Sorsha Stuart-Rokvic Oso Gay Capriole 4 5:52:00 12.9, 14.4 13.64 33, 47, 49 (Avg:48)
323 Jenny Shepheard Currowan Waratah 6 6:12:00 12.9, 12.8 12.90 39, 48, 47 (Avg:47)
310 Jodi Dewick Wickwood Aesiras 7 6:18:00 14.9, 10.9 12.70 30, 40, 47 (Avg:43)
309 Shan Symons Dashanda Serene 8 6:20:00 13.4, 11.8 12.63 31, 36, 43 (Avg:39)
326 Deborah Colman A'Landell Prestige 9 6:22:00 13.6, 11.5 12.57 34, 42, 50 (Avg:46)
302 Sue Todd Shakari Bear 10 6:27:00 13.5, 11.4 12.40 38, 45, 48 (Avg:46)
315 Monica Ballard Blake's Heaven Ventura 11 6:33:00 11.9, 12.4 12.21 35, 44, 51 (Avg:47)
304 Julie Brooks Harmere Jameel 12 6:44:00 12.9, 10.9 11.88 39, 48, 58 (Avg:53)
311 Kristie Wright Hillbrook Return 13 7:02:00 11.0, 11.7 11.37 32, 42, 44 (Avg:43)
308 Anita Rodgers Judstan Annie 14 7:15:00 11.1, 10.8 11.03 37, 54, 51 (Avg:52)
317 Cherry Cummins Oso Spiralling Wind 15 7:25:00 10.4, 11.1 10.79 34, 51, 48 (Avg:49)
44 Jacque Thoms Sotiris 16 7:40:00 10.6, 10.2 10.43 28, 47, 55 (Avg:51)
301 Vetea Facchini Love In The Mist 17 7:53:00 10.1, 10.1 10.15 41, 42, 52 (Avg:47)
316 Ashlea King Honey Bee 17 7:53:00 10.2, 10.0 10.15 29, 40, 45 (Avg:42)
320 Meri Lategan Malvern Lady Clara 19 8:25:00 9.7, 9.2 9.50 42, 40, 60 (Avg:50)
322 Camilla Pattison Malvern Copperfield 19 8:25:00 9.7, 9.2 9.50 34, 43, 46 (Avg:44)
325 Irene Adams Shane D Survivor Heart Rate L2 0:00:00 17.9, 12.8 - 34, 50, 72 (Avg:61)
305 Victoria Bice The Byzantine Diamonds Lame L2 0:00:00 14.6, 12.5 - 40, 43, 44 (Avg:43)
314 Adeline Gibson Brookleigh Shiralee Lame L2 0:00:00 19.6, 18.8 - 28, 40, 42 (Avg:41)
321 Mary Hollingsworth Henley Farm Jidal Heart Rate L2 0:00:00 10.7, 10.7 - 38, 38, 62 (Avg:50)
300 Elaine Kirby Turingal Park Nicholas Metabolics L2 0:00:00 12.0, 10.9 - 30, 43, 60 (Avg:51)
312 Elizabeth Moir Coolahlee Park Shaman Withdrawn L1 0:00:00 - - 30, 54 (Avg:54)
313 Courtney Chapman Kalkadoon Lucifer Withdrawn P/R 0:00:00 - - 35
201 Barbara Kurcz Mountain Breeze Mingha Lame P/R 0:00:00 - - 30
Junior
204 Gabrielle Worth Douglas 1 (BC) 4:28:00 18.4, 17.3 17.91 29, 40, 46 (Avg:43)
200 Levi Robinson Karumba Beamish 2 5:41:00 12.9, 15.4 14.08 35, 41, 49 (Avg:45)
203 Celia Hodgson Blake's Heaven Dubonnet 3 6:33:00 11.9, 12.4 12.21 34, 41, 44 (Avg:42)
202 Laura Kelly YinbillikoDestiny Shazhara 4 6:50:00 12.2, 11.1 11.71 32, 43, 48 (Avg:45)
213 Emma Barlow Jellybean 5 7:17:00 10.8, 11.0 10.98 29, 44, 48 (Avg:46)
205 Tahnaya Mercieca Brag Ngood 6 7:40:00 10.3, 10.5 10.43 43, 44, 49 (Avg:46)